Time;durP1;ratioP1;P1;durP2;ratioP2;P2;SDS_P1;SDS_P2;PMS_P1;PMS_P2;Temp;Humidity;BMP_temperature;BMP_pressure;BME280_temperature;BME280_humidity;BME280_pressure;Samples;Min_cycle;Max_cycle;Signal;HPM_P1;HPM_P2
2022/04/25 00:01:48;;;;;;;16.80;8.70;;;;;;;7.06;92.76;99968.00;5023989;28;20044;-75
2022/04/25 00:04:16;;;;;;;13.30;8.00;;;;;;;7.07;92.55;99973.19;5044824;28;20066;-75
2022/04/25 00:06:43;;;;;;;14.95;7.90;;;;;;;6.99;92.97;99975.38;5045520;28;20155;-75
2022/04/25 00:09:10;;;;;;;18.90;9.10;;;;;;;7.03;92.96;99976.91;5044636;28;20055;-76
2022/04/25 00:11:37;;;;;;;16.10;8.32;;;;;;;7.04;92.60;99981.19;5048857;28;20056;-75
2022/04/25 00:14:06;;;;;;;17.90;8.30;;;;;;;7.04;92.61;99980.34;5064067;28;20159;-75
2022/04/25 00:16:34;;;;;;;12.68;8.20;;;;;;;6.97;93.48;99981.59;5044988;28;20068;-76
2022/04/25 00:19:01;;;;;;;21.75;9.95;;;;;;;6.95;93.20;99988.72;5027853;28;20036;-76
2022/04/25 00:21:28;;;;;;;15.93;10.23;;;;;;;6.91;93.52;99982.78;5010539;28;20120;-75
2022/04/25 00:23:58;;;;;;;17.45;9.93;;;;;;;7.00;93.48;99991.91;5054472;28;20072;-75
2022/04/25 00:26:25;;;;;;;15.70;8.82;;;;;;;7.04;92.84;99990.81;5045502;28;20052;-76
2022/04/25 00:28:52;;;;;;;19.23;9.82;;;;;;;6.99;93.01;99993.69;5025380;28;20143;-76
2022/04/25 00:31:19;;;;;;;14.70;9.25;;;;;;;6.91;93.58;99998.50;5045204;28;20467;-76
2022/04/25 00:33:47;;;;;;;18.98;10.10;;;;;;;6.97;93.29;99989.47;5041587;28;20127;-75
2022/04/25 00:36:14;;;;;;;13.30;9.15;;;;;;;6.95;93.47;99997.41;5027897;28;20040;-75
2022/04/25 00:38:41;;;;;;;13.80;9.27;;;;;;;7.00;93.45;99999.78;5012399;28;20044;-75
2022/04/25 00:41:09;;;;;;;14.20;9.40;;;;;;;7.03;92.63;99994.38;5027449;28;20060;-75
2022/04/25 00:43:36;;;;;;;15.98;9.32;;;;;;;7.03;92.89;99997.84;5013770;28;20140;-75
2022/04/25 00:46:04;;;;;;;16.30;10.00;;;;;;;7.04;92.70;99996.91;5027857;28;20091;-75
2022/04/25 00:48:31;;;;;;;19.40;9.07;;;;;;;7.06;92.54;99995.03;5048294;28;20455;-75
2022/04/25 00:50:59;;;;;;;18.08;10.52;;;;;;;7.03;92.57;100000.44;5045187;28;20074;-75
2022/04/25 00:53:26;;;;;;;21.95;11.38;;;;;;;6.92;92.79;99992.31;5045010;28;20051;-75
2022/04/25 00:55:54;;;;;;;18.60;10.77;;;;;;;6.93;93.19;99999.25;5042953;28;20083;-76
2022/04/25 00:58:21;;;;;;;22.02;10.95;;;;;;;6.89;93.04;99999.47;5049714;28;20051;-76
2022/04/25 01:00:49;;;;;;;15.95;10.13;;;;;;;6.85;93.15;99996.22;5055770;28;20147;-75
2022/04/25 01:03:17;;;;;;;22.15;10.75;;;;;;;6.88;93.37;99997.81;5046119;28;20063;-75
2022/04/25 01:05:45;;;;;;;20.50;11.20;;;;;;;6.89;93.16;100000.34;5046634;28;20045;-75
2022/04/25 01:08:12;;;;;;;18.55;11.38;;;;;;;6.93;92.52;99993.16;5065005;28;20074;-75
2022/04/25 01:10:39;;;;;;;20.20;10.98;;;;;;;6.86;92.93;99997.91;5044686;28;20071;-76
2022/04/25 01:13:07;;;;;;;15.43;10.93;;;;;;;6.81;93.33;99999.91;5031928;28;20040;-76
2022/04/25 01:15:34;;;;;;;20.58;11.18;;;;;;;6.78;93.80;99998.28;5028037;28;20091;-81
2022/04/25 01:18:04;;;;;;;17.48;11.07;;;;;;;6.73;94.05;100007.31;5002097;28;20068;-76
2022/04/25 01:20:32;;;;;;;20.42;11.55;;;;;;;6.73;93.87;100007.31;5042224;28;20063;-76
2022/04/25 01:28:37;;;;;;;;;;;;;;;6.73;94.36;100010.78;5044384;28;20573;-76
2022/04/25 01:31:05;;;;;;;20.45;10.80;;;;;;;6.68;94.20;100006.72;5052685;28;20386;-76
2022/04/25 01:33:32;;;;;;;19.02;11.43;;;;;;;6.59;94.80;100005.44;5055731;28;20312;-76
2022/04/25 01:36:00;;;;;;;21.45;11.45;;;;;;;6.59;94.83;100003.66;5059153;28;20180;-76
2022/04/25 01:38:28;;;;;;;17.73;11.20;;;;;;;6.60;94.84;100002.72;5067986;28;20376;-76
2022/04/25 01:40:57;;;;;;;17.45;11.07;;;;;;;6.62;94.65;99999.19;5056547;28;20045;-76
2022/04/25 01:43:24;;;;;;;23.52;12.52;;;;;;;6.59;95.08;100011.50;5030309;28;20130;-75
2022/04/25 01:45:52;;;;;;;20.42;11.95;;;;;;;6.65;95.04;100004.25;5059219;28;20052;-76
2022/04/25 01:48:21;;;;;;;25.17;12.40;;;;;;;6.69;94.59;100011.84;5024703;28;20473;-76
2022/04/25 01:50:49;;;;;;;20.63;12.50;;;;;;;6.62;95.10;100013.13;5036173;28;20889;-75
2022/04/25 01:53:17;;;;;;;27.27;13.02;;;;;;;6.60;94.88;100010.56;5048334;28;20455;-76
2022/04/25 01:55:44;;;;;;;22.85;11.35;;;;;;;6.56;95.28;100014.28;5060809;28;20075;-76
2022/04/25 01:58:12;;;;;;;23.60;12.70;;;;;;;6.58;95.10;100015.06;5059771;28;20090;-76
2022/04/25 02:00:39;;;;;;;21.58;12.60;;;;;;;6.59;94.90;100014.13;5044112;28;20414;-74
2022/04/25 02:03:07;;;;;;;23.02;12.75;;;;;;;6.57;95.16;100012.50;5054472;28;20069;-74
2022/04/25 02:05:35;;;;;;;17.77;11.77;;;;;;;6.49;95.52;100009.47;5058532;28;20510;-74
2022/04/25 02:08:03;;;;;;;22.75;12.90;;;;;;;6.61;94.94;100008.78;5052625;28;20044;-73
2022/04/25 02:10:30;;;;;;;27.27;13.45;;;;;;;6.53;95.18;100011.84;5058606;28;20139;-73
2022/04/25 02:12:57;;;;;;;20.20;12.15;;;;;;;6.50;95.79;100019.00;5046615;28;20127;-73
2022/04/25 02:15:25;;;;;;;21.00;13.60;;;;;;;6.39;96.13;100011.69;5058510;28;20541;-74
2022/04/25 02:17:52;;;;;;;20.10;12.75;;;;;;;6.44;95.90;100017.53;5046625;28;20131;-74
2022/04/25 02:20:21;;;;;;;24.95;12.93;;;;;;;6.44;95.48;100025.38;5043011;28;20075;-75
2022/04/25 02:22:48;;;;;;;20.75;13.02;;;;;;;6.45;95.54;100031.47;5051551;28;20044;-73
2022/04/25 02:25:15;;;;;;;22.20;12.50;;;;;;;6.37;96.18;100025.78;5033060;28;20110;-75
2022/04/25 02:27:43;;;;;;;23.95;12.32;;;;;;;6.34;96.28;100027.59;5075505;28;20176;-75
2022/04/25 02:30:11;;;;;;;23.17;13.88;;;;;;;6.34;96.37;100027.59;5027495;28;20051;-75
2022/04/25 02:32:39;;;;;;;22.77;12.48;;;;;;;6.34;96.64;100030.22;5046807;28;20059;-74
2022/04/25 02:35:06;;;;;;;19.83;12.25;;;;;;;6.34;96.20;100029.38;5049447;28;20175;-75
2022/04/25 02:37:33;;;;;;;18.30;12.63;;;;;;;6.34;96.39;100031.97;5048361;28;20045;-76
2022/04/25 02:40:02;;;;;;;18.92;12.63;;;;;;;6.29;96.51;100034.00;5033315;28;20041;-74
2022/04/25 02:42:29;;;;;;;21.27;14.88;;;;;;;6.30;96.26;100033.94;5056398;28;20045;-75
2022/04/25 02:44:56;;;;;;;27.65;15.30;;;;;;;6.26;96.39;100028.91;5042307;28;20049;-75
2022/04/25 02:47:23;;;;;;;24.75;14.13;;;;;;;6.19;96.88;100022.31;5063012;28;20471;-76
2022/04/25 02:49:51;;;;;;;20.58;13.05;;;;;;;6.19;96.71;100035.38;5025321;28;20048;-75
2022/04/25 02:52:18;;;;;;;24.10;13.38;;;;;;;6.21;96.95;100030.91;5028060;28;20088;-77
2022/04/25 02:54:45;;;;;;;26.10;13.70;;;;;;;6.17;96.99;100040.69;5059807;28;20052;-76
2022/04/25 02:57:12;;;;;;;20.42;13.57;;;;;;;6.15;97.04;100032.06;5061678;28;20056;-76
2022/04/25 02:59:39;;;;;;;25.20;13.48;;;;;;;6.16;97.02;100035.53;5047572;28;20049;-76
2022/04/25 03:02:07;;;;;;;22.88;14.88;;;;;;;6.14;96.76;100040.00;5047313;28;20052;-76
2022/04/25 03:04:34;;;;;;;22.20;14.02;;;;;;;6.06;97.58;100041.22;5061661;28;20075;-75
2022/04/25 03:07:03;;;;;;;27.42;13.63;;;;;;;5.99;97.81;100038.97;5046769;28;20044;-75
2022/04/25 03:09:30;;;;;;;22.95;14.63;;;;;;;6.00;98.18;100041.53;5046507;28;20406;-75
2022/04/25 03:11:58;;;;;;;24.65;13.88;;;;;;;5.96;98.34;100046.97;5027812;28;20225;-75
2022/04/25 03:14:26;;;;;;;23.45;15.30;;;;;;;5.97;98.52;100048.66;5034290;28;20049;-75
2022/04/25 03:16:53;;;;;;;23.63;14.70;;;;;;;5.95;98.12;100053.13;5030610;28;20044;-75
2022/04/25 03:19:21;;;;;;;20.85;14.13;;;;;;;5.82;98.58;100056.31;5056352;28;20054;-75
2022/04/25 03:21:48;;;;;;;22.45;14.15;;;;;;;5.71;99.35;100052.50;5044300;28;20363;-75
2022/04/25 03:24:15;;;;;;;23.80;14.20;;;;;;;5.73;99.70;100058.50;5026813;28;20877;-75
2022/04/25 03:26:44;;;;;;;21.67;13.90;;;;;;;5.70;99.68;100056.88;5045179;28;20476;-76
2022/04/25 03:29:13;;;;;;;22.20;14.25;;;;;;;5.61;100.00;100059.94;5027988;28;20052;-76
2022/04/25 03:31:40;;;;;;;25.17;14.68;;;;;;;5.64;100.00;100057.19;5047117;28;20174;-75
2022/04/25 03:34:08;;;;;;;23.27;15.52;;;;;;;5.65;100.00;100064.09;5009978;28;20485;-75
2022/04/25 03:36:35;;;;;;;22.30;14.02;;;;;;;5.64;100.00;100062.41;5044452;28;20699;-75
2022/04/25 03:39:02;;;;;;;19.92;13.23;;;;;;;5.73;100.00;100069.81;5024483;28;20044;-76
2022/04/25 03:41:31;;;;;;;26.27;16.55;;;;;;;5.80;100.00;100073.78;5057539;28;20091;-76
2022/04/25 03:43:58;;;;;;;24.00;15.48;;;;;;;5.78;99.95;100074.81;5039526;28;20099;-75
2022/04/25 03:46:27;;;;;;;26.27;15.25;;;;;;;5.77;100.00;100075.72;5041765;28;20045;-76
2022/04/25 03:48:54;;;;;;;25.88;14.20;;;;;;;5.72;99.94;100085.53;5055288;28;20071;-76
2022/04/25 03:51:22;;;;;;;25.15;14.18;;;;;;;5.76;100.00;100085.34;5044307;28;20617;-75
2022/04/25 03:53:50;;;;;;;21.90;14.35;;;;;;;5.84;99.40;100079.72;5061963;28;20065;-76
2022/04/25 03:59:17;;;;;;;21.27;13.63;;;;;;;5.92;98.97;100095.06;5016160;28;20063;-80
2022/04/25 04:01:44;;;;;;;24.52;14.60;;;;;;;5.89;99.55;100085.56;5030820;28;20110;-79
2022/04/25 04:04:11;;;;;;;25.20;14.48;;;;;;;5.85;99.24;100094.47;5066510;28;20040;-79
2022/04/25 04:06:40;;;;;;;27.60;13.75;;;;;;;5.96;99.31;100091.41;5031071;28;20067;-79
2022/04/25 04:12:01;;;;;;;20.33;13.60;;;;;;;6.16;97.48;100099.09;5055223;28;20052;-77
2022/04/25 04:14:28;;;;;;;25.05;13.63;;;;;;;6.20;97.08;100102.41;5056258;28;20025;-80
2022/04/25 04:16:55;;;;;;;22.80;14.32;;;;;;;6.15;97.38;100104.41;5062807;28;20053;-75
2022/04/25 04:19:23;;;;;;;27.27;14.15;;;;;;;6.13;98.34;100114.09;5035738;28;20057;-75
2022/04/25 04:21:50;;;;;;;28.30;14.85;;;;;;;6.10;97.77;100112.47;5042117;28;20056;-75
2022/04/25 04:24:17;;;;;;;26.25;14.80;;;;;;;6.20;97.99;100112.88;5056342;28;20059;-75
2022/04/25 04:26:44;;;;;;;22.08;14.13;;;;;;;6.22;97.34;100118.88;5041144;28;20045;-75
2022/04/25 04:29:11;;;;;;;24.58;14.60;;;;;;;6.20;96.96;100115.47;5053891;28;20052;-75
2022/04/25 04:31:39;;;;;;;22.48;14.40;;;;;;;6.25;97.11;100124.78;5060132;28;20221;-74
2022/04/25 04:34:06;;;;;;;25.65;14.27;;;;;;;6.21;96.95;100122.38;5024038;28;20052;-75
2022/04/25 04:36:33;;;;;;;23.85;14.38;;;;;;;6.20;96.69;100132.00;5020761;28;20451;-76
2022/04/25 04:39:00;;;;;;;23.77;14.68;;;;;;;6.27;97.12;100135.19;5056015;28;20055;-74
2022/04/25 04:41:28;;;;;;;25.08;14.45;;;;;;;6.30;96.43;100138.50;5044150;28;20044;-75
2022/04/25 04:43:58;;;;;;;23.67;13.68;;;;;;;6.38;96.11;100132.88;5041151;28;20052;-75
2022/04/25 04:46:25;;;;;;;23.75;14.57;;;;;;;6.45;95.21;100143.88;5046159;28;20044;-75
2022/04/25 04:48:52;;;;;;;22.38;14.18;;;;;;;6.35;95.16;100143.50;5012878;28;20044;-75
2022/04/25 04:51:19;;;;;;;31.77;15.07;;;;;;;6.34;95.13;100141.78;5055098;28;20064;-75
2022/04/25 04:53:47;;;;;;;26.73;15.20;;;;;;;6.33;95.75;100137.47;5041985;28;20060;-75
2022/04/25 04:56:14;;;;;;;25.85;14.85;;;;;;;6.40;95.39;100153.72;5040484;28;20156;-75
2022/04/25 04:58:41;;;;;;;24.67;13.93;;;;;;;6.37;95.50;100149.47;5055578;28;20064;-76
2022/04/25 05:01:09;;;;;;;23.15;15.75;;;;;;;6.38;95.14;100153.78;5041399;28;20059;-76
2022/04/25 05:03:36;;;;;;;22.58;13.80;;;;;;;6.42;95.51;100163.19;5028487;28;20527;-75
2022/04/25 05:06:05;;;;;;;28.05;15.57;;;;;;;6.43;94.73;100158.78;5035489;28;20136;-76
2022/04/25 05:08:32;;;;;;;28.30;15.13;;;;;;;6.41;94.96;100156.25;5043908;28;20053;-75
2022/04/25 05:11:00;;;;;;;28.98;16.60;;;;;;;6.51;94.76;100164.50;5022615;28;20041;-76
2022/04/25 05:13:27;;;;;;;25.42;15.57;;;;;;;6.57;94.42;100165.06;5057143;28;20475;-76
2022/04/25 05:15:55;;;;;;;24.35;14.32;;;;;;;6.71;93.48;100176.56;5046932;28;20044;-76
2022/04/25 05:18:24;;;;;;;24.42;15.02;;;;;;;6.73;93.73;100172.13;5036720;28;20502;-73
2022/04/25 05:20:52;;;;;;;24.95;15.27;;;;;;;6.74;93.35;100166.81;5038815;28;20071;-77
2022/04/25 05:23:19;;;;;;;25.15;13.30;;;;;;;6.79;93.00;100170.03;5047284;28;20143;-75
2022/04/25 05:25:46;;;;;;;18.15;12.95;;;;;;;6.84;92.66;100181.13;5021063;28;20048;-73
2022/04/25 05:28:14;;;;;;;25.95;14.05;;;;;;;6.86;92.44;100186.28;5046221;28;20076;-75
2022/04/25 05:30:42;;;;;;;22.92;13.77;;;;;;;6.89;92.47;100188.75;5043711;28;20124;-74
2022/04/25 05:33:10;;;;;;;20.70;13.38;;;;;;;6.97;92.43;100191.78;5031647;28;20051;-75
2022/04/25 05:35:37;;;;;;;29.27;13.00;;;;;;;7.02;92.07;100192.41;5040774;28;20057;-74
2022/04/25 05:38:10;;;;;;;23.75;13.40;;;;;;;7.03;91.65;100194.13;5065954;28;20057;-75
2022/04/25 05:40:37;;;;;;;20.30;12.45;;;;;;;7.18;90.89;100200.34;5047661;28;20056;-74
2022/04/25 05:43:05;;;;;;;19.83;10.98;;;;;;;7.29;89.54;100197.16;5028452;28;20056;-75
2022/04/25 05:45:33;;;;;;;19.75;10.57;;;;;;;7.33;89.20;100196.06;5056374;28;20147;-74
2022/04/25 05:48:00;;;;;;;17.20;11.52;;;;;;;7.40;89.12;100207.91;5032240;28;20135;-75
2022/04/25 05:53:16;;;;;;;17.63;9.73;;;;;;;7.49;88.50;100206.59;5053205;28;20060;-75
2022/04/25 05:55:43;;;;;;;18.27;10.50;;;;;;;7.54;87.42;100209.81;5045429;28;20056;-74
2022/04/25 05:58:10;;;;;;;18.83;10.07;;;;;;;7.52;87.87;100215.16;5063083;28;20057;-73
2022/04/25 06:00:37;;;;;;;14.48;9.38;;;;;;;7.52;88.06;100214.28;5023146;28;20052;-72
2022/04/25 06:03:05;;;;;;;17.45;9.38;;;;;;;7.61;88.05;100217.28;5029384;28;20064;-72
2022/04/25 06:05:32;;;;;;;15.63;9.13;;;;;;;7.71;87.52;100217.63;5059669;28;20454;-73
2022/04/25 06:07:59;;;;;;;17.25;9.45;;;;;;;7.78;86.10;100213.72;5052339;28;20048;-72
2022/04/25 06:10:26;;;;;;;14.57;8.90;;;;;;;7.93;85.07;100214.69;5038216;28;20061;-73
2022/04/25 06:12:54;;;;;;;13.57;9.18;;;;;;;8.02;85.07;100222.06;5056966;28;20496;-73
2022/04/25 06:19:33;;;;;;;14.10;7.93;;;;;;;8.25;83.72;100231.28;5057848;28;20051;-73
2022/04/25 06:22:01;;;;;;;13.20;8.20;;;;;;;8.40;83.67;100229.59;5046424;28;20128;-73
2022/04/25 06:24:28;;;;;;;18.08;9.13;;;;;;;8.56;83.20;100232.22;5052426;28;20052;-73
2022/04/25 06:26:57;;;;;;;16.02;7.80;;;;;;;8.60;82.23;100229.31;5026661;28;20045;-73
2022/04/25 06:29:24;;;;;;;11.85;7.45;;;;;;;8.61;82.39;100231.00;5025230;28;20162;-74
2022/04/25 06:31:51;;;;;;;15.45;8.02;;;;;;;8.54;82.39;100242.78;5060033;28;20040;-74
2022/04/25 06:34:19;;;;;;;10.30;6.80;;;;;;;8.57;81.66;100245.22;5039192;28;20063;-74
2022/04/25 06:36:46;;;;;;;11.90;8.68;;;;;;;8.69;82.53;100242.81;5041167;28;20045;-74
2022/04/25 06:39:13;;;;;;;14.65;7.95;;;;;;;8.61;81.52;100246.75;5058896;28;20062;-73
2022/04/25 06:41:41;;;;;;;11.63;6.85;;;;;;;8.64;81.46;100258.84;5044767;28;20055;-73
2022/04/25 06:44:08;;;;;;;14.57;7.63;;;;;;;8.78;80.64;100255.41;5026187;28;20032;-73
2022/04/25 06:46:35;;;;;;;12.35;7.45;;;;;;;8.71;80.25;100256.72;5026079;28;20071;-74
2022/04/25 06:49:20;;;;;;;10.10;6.88;;;;;;;8.80;80.23;100253.56;5039255;28;20071;-73
2022/04/25 06:51:48;;;;;;;14.85;7.82;;;;;;;8.89;80.06;100260.91;5040725;28;20500;-73
2022/04/25 06:54:15;;;;;;;12.43;7.47;;;;;;;8.81;79.72;100253.47;5040462;28;20044;-73
2022/04/25 06:56:42;;;;;;;12.38;8.18;;;;;;;8.87;80.25;100268.00;5042660;28;20053;-72
2022/04/25 06:59:10;;;;;;;11.80;7.35;;;;;;;8.90;79.29;100261.75;5040613;28;20059;-73
2022/04/25 07:01:39;;;;;;;14.07;7.65;;;;;;;8.86;78.87;100267.19;5060709;28;20060;-73
2022/04/25 07:04:11;;;;;;;9.98;6.57;;;;;;;8.73;79.42;100270.59;5027587;28;20062;-74
2022/04/25 07:06:39;;;;;;;12.25;7.43;;;;;;;8.72;79.37;100272.38;5056830;28;20198;-75
2022/04/25 07:09:07;;;;;;;11.57;7.22;;;;;;;8.78;79.40;100274.66;5025576;28;20518;-74
2022/04/25 07:11:34;;;;;;;11.48;6.57;;;;;;;8.80;79.61;100269.31;5035856;28;20048;-73
2022/04/25 07:14:04;;;;;;;10.70;6.95;;;;;;;8.89;78.92;100276.66;5039158;28;20052;-74
2022/04/25 07:16:32;;;;;;;12.45;7.32;;;;;;;8.81;79.18;100281.50;5041542;28;20068;-74
2022/04/25 07:18:59;;;;;;;10.85;6.20;;;;;;;8.65;79.99;100278.91;5062583;28;20067;-74
2022/04/25 07:30:04;;;;;;;12.85;7.28;;;;;;;9.00;79.09;100281.28;5030946;28;20046;-74
2022/04/25 07:32:32;;;;;;;10.77;7.00;;;;;;;9.08;78.59;100294.81;5040360;28;20085;-74
2022/04/25 07:35:04;;;;;;;12.13;6.47;;;;;;;9.02;79.12;100290.78;5040039;28;20139;-73
2022/04/25 07:37:33;;;;;;;10.35;5.55;;;;;;;9.15;79.24;100292.69;5055012;28;20097;-75
2022/04/25 07:40:01;;;;;;;8.60;5.68;;;;;;;9.21;78.40;100300.22;5040149;28;20072;-74
2022/04/25 07:42:29;;;;;;;12.27;5.85;;;;;;;9.29;77.74;100298.81;5041361;28;20079;-75
2022/04/25 07:44:56;;;;;;;12.20;6.25;;;;;;;9.26;77.65;100306.03;5023663;28;20805;-74
2022/04/25 07:47:24;;;;;;;16.25;6.70;;;;;;;9.29;78.29;100300.63;5044992;28;20045;-74
2022/04/25 07:49:51;;;;;;;11.90;6.65;;;;;;;9.30;78.07;100307.56;5045205;28;20467;-74
2022/04/25 07:52:18;;;;;;;13.07;6.22;;;;;;;9.47;78.66;100314.44;5047262;28;20051;-73
2022/04/25 07:54:45;;;;;;;12.23;5.40;;;;;;;9.66;77.66;100314.19;5021335;28;20083;-73
2022/04/25 07:57:13;;;;;;;12.07;6.25;;;;;;;9.32;76.97;100318.81;5043177;28;20091;-74
2022/04/25 07:59:40;;;;;;;21.00;6.47;;;;;;;9.26;77.80;100311.28;5037957;28;20128;-74
2022/04/25 08:02:07;;;;;;;18.40;8.70;;;;;;;9.34;77.60;100309.06;5061233;28;20099;-74
2022/04/25 08:04:35;;;;;;;18.25;7.07;;;;;;;9.46;77.40;100315.41;5045314;28;20071;-74
2022/04/25 08:07:02;;;;;;;11.02;5.70;;;;;;;9.62;76.60;100321.41;5060882;28;20529;-74
2022/04/25 08:09:30;;;;;;;12.20;5.75;;;;;;;9.60;76.20;100324.13;5044103;28;20147;-73
2022/04/25 08:20:16;;;;;;;10.82;6.20;;;;;;;9.86;75.54;100324.34;5042114;28;20083;-75
2022/04/25 08:22:46;;;;;;;19.70;7.50;;;;;;;10.05;73.52;100330.19;5062508;28;20051;-75
2022/04/25 08:29:20;;;;;;;17.08;7.22;;;;;;;10.18;72.54;100335.53;5054789;28;20070;-73
2022/04/25 08:31:48;;;;;;;22.60;8.20;;;;;;;10.17;72.41;100333.81;5039630;28;20049;-75
2022/04/25 08:34:16;;;;;;;13.32;7.30;;;;;;;10.30;70.88;100339.22;5038948;28;20091;-75
2022/04/25 08:36:43;;;;;;;14.07;5.95;;;;;;;10.44;71.58;100335.72;5040776;28;20144;-74
2022/04/25 08:39:10;;;;;;;17.98;6.15;;;;;;;10.76;70.93;100331.03;5040082;28;20534;-75
2022/04/25 08:41:41;;;;;;;9.43;5.30;;;;;;;11.11;69.70;100331.38;5039020;28;20827;-74
2022/04/25 08:44:08;;;;;;;7.53;4.72;;;;;;;11.37;68.12;100335.75;5057732;28;20563;-74
2022/04/25 08:46:37;;;;;;;17.60;6.63;;;;;;;11.49;67.20;100330.63;5027434;28;20068;-75
2022/04/25 08:49:05;;;;;;;9.10;4.68;;;;;;;11.46;66.61;100341.38;5038978;28;20062;-75
2022/04/25 08:51:34;;;;;;;8.45;5.05;;;;;;;11.82;65.78;100345.94;5039688;28;20128;-75
2022/04/25 08:54:03;;;;;;;13.20;5.20;;;;;;;11.85;65.47;100353.69;5054466;28;20399;-74
2022/04/25 08:56:30;;;;;;;9.98;5.50;;;;;;;11.63;65.70;100354.28;5054297;28;20048;-73
2022/04/25 08:58:58;;;;;;;12.23;5.20;;;;;;;11.68;65.60;100354.78;5036917;28;20053;-72
2022/04/25 09:01:25;;;;;;;12.93;5.50;;;;;;;11.30;66.10;100359.97;5024736;28;20053;-74
2022/04/25 09:03:53;;;;;;;25.60;7.70;;;;;;;11.06;67.20;100359.81;5036573;28;20049;-74
2022/04/25 09:06:20;;;;;;;19.23;6.70;;;;;;;11.16;66.77;100363.53;5052954;28;20052;-74
2022/04/25 09:08:47;;;;;;;9.57;5.55;;;;;;;11.38;66.38;100363.78;5025048;28;20546;-74
2022/04/25 09:14:01;;;;;;;8.73;4.32;;;;;;;11.69;65.33;100358.28;5039047;28;20065;-74
2022/04/25 09:16:28;;;;;;;6.03;3.88;;;;;;;11.91;64.57;100367.28;5022581;28;20051;-74
2022/04/25 09:18:57;;;;;;;7.85;4.53;;;;;;;12.05;64.82;100376.03;5056468;28;20056;-73
2022/04/25 09:21:24;;;;;;;9.93;4.57;;;;;;;12.27;64.19;100367.50;5042946;28;20468;-74
2022/04/25 09:23:52;;;;;;;14.57;4.60;;;;;;;12.61;62.70;100372.06;5043093;28;20056;-74
2022/04/25 09:26:21;;;;;;;13.77;4.75;;;;;;;12.80;62.45;100378.69;5057071;28;20575;-75
2022/04/25 09:28:54;;;;;;;13.73;5.55;;;;;;;12.86;61.34;100381.72;5059108;28;20056;-74
2022/04/25 09:31:22;;;;;;;15.88;5.65;;;;;;;12.94;60.86;100373.22;5024877;28;20045;-74
2022/04/25 09:33:50;;;;;;;15.18;5.38;;;;;;;13.09;60.46;100387.97;5041253;28;20118;-74
2022/04/25 09:36:17;;;;;;;11.25;5.15;;;;;;;13.09;59.55;100379.19;5042834;28;20041;-74
2022/04/25 09:38:47;;;;;;;12.70;4.90;;;;;;;12.78;59.95;100383.22;5026948;28;20052;-73
2022/04/25 09:41:16;;;;;;;10.18;4.47;;;;;;;12.88;60.32;100394.81;5034336;28;20044;-73
2022/04/25 09:43:44;;;;;;;6.57;3.65;;;;;;;13.05;60.47;100389.13;5023144;28;20060;-73
2022/04/25 09:46:14;;;;;;;7.05;4.13;;;;;;;13.40;59.38;100381.28;5058537;28;20043;-73
2022/04/25 09:49:01;;;;;;;4.57;3.03;;;;;;;13.53;59.00;100385.66;5021289;28;20057;-73
2022/04/25 09:51:29;;;;;;;6.13;3.83;;;;;;;13.83;58.44;100393.94;5056688;28;20055;-76
2022/04/25 09:53:57;;;;;;;8.65;3.88;;;;;;;14.14;56.95;100395.06;5026687;28;20041;-75
2022/04/25 09:56:34;;;;;;;8.05;3.67;;;;;;;14.19;56.51;100387.63;5040629;28;20043;-75
2022/04/25 09:59:09;;;;;;;8.38;3.97;;;;;;;14.17;56.86;100388.69;5022315;28;20045;-73
2022/04/25 10:01:38;;;;;;;4.85;3.13;;;;;;;14.23;57.67;100388.22;5007330;28;20052;-73
2022/04/25 10:04:31;;;;;;;9.85;3.85;;;;;;;14.16;56.67;100392.28;5026197;28;20044;-74
2022/04/25 10:07:03;;;;;;;9.13;4.05;;;;;;;14.06;56.10;100392.16;5028519;28;20554;-74
2022/04/25 10:09:32;;;;;;;7.03;3.83;;;;;;;13.86;55.88;100392.84;5040213;28;20097;-74
2022/04/25 10:12:02;;;;;;;11.40;4.07;;;;;;;13.60;56.26;100395.69;5022294;28;20148;-74
2022/04/25 10:14:30;;;;;;;6.70;3.40;;;;;;;13.72;56.86;100393.91;5039502;28;20055;-74
2022/04/25 10:16:58;;;;;;;11.50;3.63;;;;;;;13.98;56.08;100399.84;5060103;28;20530;-74
2022/04/25 10:19:27;;;;;;;10.27;3.60;;;;;;;13.89;56.08;100392.63;5043974;28;20522;-74
2022/04/25 10:21:56;;;;;;;8.40;3.88;;;;;;;13.98;55.70;100399.00;5042651;28;20048;-74
2022/04/25 10:24:23;;;;;;;12.98;4.45;;;;;;;14.10;54.91;100398.06;5060914;28;20056;-74
2022/04/25 10:26:52;;;;;;;3.70;2.30;;;;;;;14.38;54.93;100402.91;5026482;28;20379;-73
2022/04/25 10:29:26;;;;;;;5.72;3.10;;;;;;;13.93;54.31;100396.72;5040351;28;20045;-74
2022/04/25 10:31:59;;;;;;;22.50;4.88;;;;;;;14.23;54.39;100398.81;5046026;28;20064;-74
2022/04/25 10:34:59;;;;;;;9.90;4.50;;;;;;;14.12;54.78;100402.28;5022242;28;20053;-74
2022/04/25 10:37:29;;;;;;;9.73;4.50;;;;;;;14.32;54.43;100402.53;5045642;28;20153;-74
2022/04/25 10:39:56;;;;;;;10.75;4.50;;;;;;;14.29;53.73;100400.13;5056844;28;20109;-76
2022/04/25 10:45:09;;;;;;;6.78;4.05;;;;;;;14.64;54.18;100410.66;5042498;28;20120;-76
2022/04/25 10:47:37;;;;;;;7.72;3.58;;;;;;;14.97;53.96;100407.09;5060279;28;20071;-75
2022/04/25 10:50:07;;;;;;;7.78;3.45;;;;;;;15.23;52.60;100409.44;5026860;28;20510;-76
2022/04/25 10:55:30;;;;;;;16.15;5.60;;;;;;;15.34;51.42;100402.28;5062821;28;20511;-76
2022/04/25 10:58:03;;;;;;;6.93;3.70;;;;;;;15.33;52.20;100411.22;5037997;28;20044;-75
2022/04/25 11:00:37;;;;;;;5.00;3.10;;;;;;;15.59;50.87;100409.06;5061959;28;20058;-76
2022/04/25 11:03:12;;;;;;;6.03;3.00;;;;;;;15.39;50.81;100412.50;5060816;28;20060;-77
2022/04/25 11:05:44;;;;;;;8.25;3.47;;;;;;;15.43;51.37;100408.63;5044226;28;20090;-76
2022/04/25 11:08:20;;;;;;;7.40;3.58;;;;;;;15.64;50.95;100412.19;5050839;28;20063;-76
2022/04/25 11:10:56;;;;;;;5.22;2.65;;;;;;;15.74;50.87;100417.56;5045539;28;20075;-75
2022/04/25 11:13:26;;;;;;;6.35;3.10;;;;;;;15.86;50.52;100426.31;5058732;28;20819;-74
2022/04/25 11:15:56;;;;;;;11.32;4.63;;;;;;;15.83;49.21;100419.44;5025017;28;20128;-74
2022/04/25 11:18:33;;;;;;;17.00;4.90;;;;;;;15.62;49.63;100432.66;5059266;28;20056;-75
2022/04/25 11:21:04;;;;;;;18.05;4.20;;;;;;;15.85;49.92;100427.28;5041558;28;21077;-75
2022/04/25 11:23:33;;;;;;;8.27;3.67;;;;;;;16.15;49.08;100434.47;5045104;28;20063;-74
2022/04/25 11:26:07;;;;;;;8.10;3.22;;;;;;;16.18;47.94;100432.41;5057607;28;20064;-76
2022/04/25 11:28:54;;;;;;;9.48;3.42;;;;;;;16.27;47.87;100435.25;5058372;28;20404;-76
2022/04/25 11:31:23;;;;;;;10.18;3.90;;;;;;;16.61;47.64;100444.63;5059699;28;20052;-77
2022/04/25 11:33:52;;;;;;;7.63;4.18;;;;;;;16.88;47.24;100443.22;5040312;28;20589;-74
2022/04/25 11:36:21;;;;;;;10.70;4.00;;;;;;;17.00;46.75;100441.28;5056256;28;20044;-74
2022/04/25 11:41:37;;;;;;;6.82;3.08;;;;;;;17.24;46.52;100444.41;5044759;28;20036;-74
2022/04/25 11:44:05;;;;;;;6.22;3.05;;;;;;;17.48;44.67;100437.88;5022734;28;20051;-75
2022/04/25 11:46:34;;;;;;;9.38;4.10;;;;;;;17.57;44.29;100448.53;5024196;28;20133;-75
2022/04/25 11:49:02;;;;;;;9.00;4.53;;;;;;;17.52;44.51;100453.44;5039977;28;20048;-74
2022/04/25 11:51:35;;;;;;;7.60;3.10;;;;;;;17.19;44.45;100460.78;5038062;28;20078;-74
2022/04/25 11:54:04;;;;;;;5.85;3.65;;;;;;;17.41;44.90;100456.22;5013225;28;20053;-74
2022/04/25 11:56:33;;;;;;;9.85;3.60;;;;;;;17.95;45.11;100453.00;5032465;28;20049;-74
2022/04/25 11:59:06;;;;;;;7.78;3.20;;;;;;;18.33;44.46;100453.94;5041695;28;21076;-74
2022/04/25 12:01:41;;;;;;;9.60;3.63;;;;;;;18.80;43.88;100453.91;5043074;28;20097;-74
2022/04/25 12:04:25;;;;;;;;;;;;;;;18.59;41.43;100453.28;5050920;28;20090;-74
2022/04/25 12:07:01;;;;;;;8.30;4.22;;;;;;;18.40;41.93;100457.69;5027479;28;19921;-74
2022/04/25 12:15:34;;;;;;;8.27;3.30;;;;;;;17.48;43.14;100469.81;5042942;28;20036;-74
2022/04/25 12:15:35;;;;;;;5.10;3.08;;;;;;;17.98;43.39;100465.22;5030081;28;20072;-75
2022/04/25 12:18:14;;;;;;;7.45;3.65;;;;;;;18.43;43.31;100462.72;5041716;28;20048;-74
2022/04/25 12:20:44;;;;;;;6.53;3.53;;;;;;;18.98;41.99;100459.31;5052341;28;20163;-75
2022/04/25 12:23:23;;;;;;;8.32;3.00;;;;;;;19.63;41.39;100464.53;5047582;28;20044;-74